sensor_id;sensor_type;location;lat;lon;timestamp;temperature;humidity
10443;DHT22;5269;51.146;16.986;2023-01-26T00:02:09;2.40;99.90
10443;DHT22;5269;51.146;16.986;2023-01-26T00:04:36;2.30;99.90
10443;DHT22;5269;51.146;16.986;2023-01-26T00:07:03;2.20;99.90
10443;DHT22;5269;51.146;16.986;2023-01-26T00:09:34;2.30;99.90
10443;DHT22;5269;51.146;16.986;2023-01-26T00:12:01;2.30;99.90
10443;DHT22;5269;51.146;16.986;2023-01-26T00:14:28;2.20;99.90
10443;DHT22;5269;51.146;16.986;2023-01-26T00:17:15;2.20;99.90
10443;DHT22;5269;51.146;16.986;2023-01-26T00:19:53;2.00;99.90
10443;DHT22;5269;51.146;16.986;2023-01-26T00:22:23;1.90;99.90
10443;DHT22;5269;51.146;16.986;2023-01-26T00:24:52;2.00;99.90
10443;DHT22;5269;51.146;16.986;2023-01-26T00:27:19;2.10;99.90
10443;DHT22;5269;51.146;16.986;2023-01-26T00:29:46;2.10;99.90
10443;DHT22;5269;51.146;16.986;2023-01-26T00:32:13;2.20;99.90
10443;DHT22;5269;51.146;16.986;2023-01-26T00:34:40;2.10;99.90
10443;DHT22;5269;51.146;16.986;2023-01-26T00:37:07;2.10;99.90
10443;DHT22;5269;51.146;16.986;2023-01-26T00:39:34;2.00;99.90
10443;DHT22;5269;51.146;16.986;2023-01-26T00:42:02;2.10;99.90
10443;DHT22;5269;51.146;16.986;2023-01-26T00:44:36;2.10;99.90
10443;DHT22;5269;51.146;16.986;2023-01-26T00:47:04;2.10;99.90
10443;DHT22;5269;51.146;16.986;2023-01-26T00:49:31;2.10;99.90
10443;DHT22;5269;51.146;16.986;2023-01-26T00:51:59;2.10;99.90
10443;DHT22;5269;51.146;16.986;2023-01-26T00:54:28;2.10;99.90
10443;DHT22;5269;51.146;16.986;2023-01-26T00:56:55;2.20;99.90
10443;DHT22;5269;51.146;16.986;2023-01-26T00:59:24;2.30;99.90
10443;DHT22;5269;51.146;16.986;2023-01-26T01:01:52;2.30;99.90
10443;DHT22;5269;51.146;16.986;2023-01-26T01:04:19;2.20;99.90
10443;DHT22;5269;51.146;16.986;2023-01-26T01:06:46;2.30;99.90
10443;DHT22;5269;51.146;16.986;2023-01-26T01:09:13;2.20;99.90
10443;DHT22;5269;51.146;16.986;2023-01-26T01:11:40;2.20;99.90
10443;DHT22;5269;51.146;16.986;2023-01-26T01:14:08;2.20;99.90
10443;DHT22;5269;51.146;16.986;2023-01-26T01:16:37;2.20;99.90
10443;DHT22;5269;51.146;16.986;2023-01-26T01:19:04;2.20;99.90
10443;DHT22;5269;51.146;16.986;2023-01-26T01:21:31;2.20;99.90
10443;DHT22;5269;51.146;16.986;2023-01-26T01:23:58;2.10;99.90
10443;DHT22;5269;51.146;16.986;2023-01-26T01:26:25;2.00;99.90
10443;DHT22;5269;51.146;16.986;2023-01-26T01:28:53;2.10;99.90
10443;DHT22;5269;51.146;16.986;2023-01-26T01:31:25;2.10;99.90
10443;DHT22;5269;51.146;16.986;2023-01-26T01:33:55;2.00;99.90
10443;DHT22;5269;51.146;16.986;2023-01-26T01:36:22;2.10;99.90
10443;DHT22;5269;51.146;16.986;2023-01-26T01:38:50;2.10;99.90
10443;DHT22;5269;51.146;16.986;2023-01-26T01:41:19;2.10;99.90
10443;DHT22;5269;51.146;16.986;2023-01-26T01:43:47;2.20;99.90
10443;DHT22;5269;51.146;16.986;2023-01-26T01:46:20;2.20;99.90
10443;DHT22;5269;51.146;16.986;2023-01-26T01:48:55;2.10;99.90
10443;DHT22;5269;51.146;16.986;2023-01-26T01:51:29;2.10;99.90
10443;DHT22;5269;51.146;16.986;2023-01-26T01:53:59;2.10;99.90
10443;DHT22;5269;51.146;16.986;2023-01-26T01:56:28;2.10;99.90
10443;DHT22;5269;51.146;16.986;2023-01-26T01:58:57;2.00;99.90
10443;DHT22;5269;51.146;16.986;2023-01-26T02:01:25;2.00;99.90
10443;DHT22;5269;51.146;16.986;2023-01-26T02:03:58;2.00;99.90
10443;DHT22;5269;51.146;16.986;2023-01-26T02:06:28;1.90;99.90
10443;DHT22;5269;51.146;16.986;2023-01-26T02:08:57;2.00;99.90
10443;DHT22;5269;51.146;16.986;2023-01-26T02:11:27;2.00;99.90
10443;DHT22;5269;51.146;16.986;2023-01-26T02:13:57;2.00;99.90
10443;DHT22;5269;51.146;16.986;2023-01-26T02:16:25;2.00;99.90
10443;DHT22;5269;51.146;16.986;2023-01-26T02:18:52;2.10;99.90
10443;DHT22;5269;51.146;16.986;2023-01-26T02:21:23;2.10;99.90
10443;DHT22;5269;51.146;16.986;2023-01-26T02:24:05;2.10;99.90
10443;DHT22;5269;51.146;16.986;2023-01-26T02:26:36;2.20;99.90
10443;DHT22;5269;51.146;16.986;2023-01-26T02:29:05;2.30;99.90
10443;DHT22;5269;51.146;16.986;2023-01-26T02:31:33;2.40;99.90
10443;DHT22;5269;51.146;16.986;2023-01-26T02:34:00;2.40;99.90
10443;DHT22;5269;51.146;16.986;2023-01-26T02:36:29;2.30;99.90
10443;DHT22;5269;51.146;16.986;2023-01-26T02:39:12;2.20;99.90
10443;DHT22;5269;51.146;16.986;2023-01-26T02:41:43;2.20;99.90
10443;DHT22;5269;51.146;16.986;2023-01-26T02:44:28;2.30;99.90
10443;DHT22;5269;51.146;16.986;2023-01-26T02:46:56;2.30;99.90
10443;DHT22;5269;51.146;16.986;2023-01-26T02:49:23;2.30;99.90
10443;DHT22;5269;51.146;16.986;2023-01-26T02:52:08;2.20;99.90
10443;DHT22;5269;51.146;16.986;2023-01-26T02:54:37;2.20;99.90
10443;DHT22;5269;51.146;16.986;2023-01-26T02:57:23;2.10;99.90
10443;DHT22;5269;51.146;16.986;2023-01-26T02:59:51;2.20;99.90
10443;DHT22;5269;51.146;16.986;2023-01-26T03:02:18;2.20;99.90
10443;DHT22;5269;51.146;16.986;2023-01-26T03:04:45;2.30;99.90
10443;DHT22;5269;51.146;16.986;2023-01-26T03:07:14;2.30;99.90
10443;DHT22;5269;51.146;16.986;2023-01-26T03:09:44;2.30;99.90
10443;DHT22;5269;51.146;16.986;2023-01-26T03:12:11;2.30;99.90
10443;DHT22;5269;51.146;16.986;2023-01-26T03:14:40;2.30;99.90
10443;DHT22;5269;51.146;16.986;2023-01-26T03:17:07;2.30;99.90
10443;DHT22;5269;51.146;16.986;2023-01-26T03:19:34;2.20;99.90
10443;DHT22;5269;51.146;16.986;2023-01-26T03:22:18;2.20;99.90
10443;DHT22;5269;51.146;16.986;2023-01-26T03:25:11;2.10;99.90
10443;DHT22;5269;51.146;16.986;2023-01-26T03:27:56;2.10;99.90
10443;DHT22;5269;51.146;16.986;2023-01-26T03:30:24;2.10;99.90
10443;DHT22;5269;51.146;16.986;2023-01-26T03:32:51;2.20;99.90
10443;DHT22;5269;51.146;16.986;2023-01-26T03:35:18;2.10;99.90
10443;DHT22;5269;51.146;16.986;2023-01-26T03:37:47;1.90;99.90
10443;DHT22;5269;51.146;16.986;2023-01-26T03:40:19;2.00;99.90
10443;DHT22;5269;51.146;16.986;2023-01-26T03:43:06;1.90;99.90
10443;DHT22;5269;51.146;16.986;2023-01-26T03:45:52;1.90;99.90
10443;DHT22;5269;51.146;16.986;2023-01-26T03:48:39;1.90;99.90
10443;DHT22;5269;51.146;16.986;2023-01-26T03:51:23;1.90;99.90
10443;DHT22;5269;51.146;16.986;2023-01-26T03:54:07;1.90;99.90
10443;DHT22;5269;51.146;16.986;2023-01-26T03:56:51;1.90;99.90
10443;DHT22;5269;51.146;16.986;2023-01-26T03:59:19;1.90;99.90
10443;DHT22;5269;51.146;16.986;2023-01-26T04:02:03;1.90;99.90
10443;DHT22;5269;51.146;16.986;2023-01-26T04:05:08;2.00;99.90
10443;DHT22;5269;51.146;16.986;2023-01-26T04:07:52;2.00;99.90
10443;DHT22;5269;51.146;16.986;2023-01-26T04:10:37;1.90;99.90
10443;DHT22;5269;51.146;16.986;2023-01-26T04:13:04;2.00;99.90
10443;DHT22;5269;51.146;16.986;2023-01-26T04:15:48;1.90;99.90
10443;DHT22;5269;51.146;16.986;2023-01-26T04:18:34;1.90;99.90
10443;DHT22;5269;51.146;16.986;2023-01-26T04:21:18;1.90;99.90
10443;DHT22;5269;51.146;16.986;2023-01-26T04:23:55;2.00;99.90
10443;DHT22;5269;51.146;16.986;2023-01-26T04:26:23;1.80;99.90
10443;DHT22;5269;51.146;16.986;2023-01-26T04:28:50;1.90;99.90
10443;DHT22;5269;51.146;16.986;2023-01-26T04:31:17;1.90;99.90
10443;DHT22;5269;51.146;16.986;2023-01-26T04:33:48;2.00;99.90
10443;DHT22;5269;51.146;16.986;2023-01-26T04:36:15;2.00;99.90
10443;DHT22;5269;51.146;16.986;2023-01-26T04:38:41;2.00;99.90
10443;DHT22;5269;51.146;16.986;2023-01-26T04:41:08;2.00;99.90
10443;DHT22;5269;51.146;16.986;2023-01-26T04:43:35;2.10;99.90
10443;DHT22;5269;51.146;16.986;2023-01-26T04:46:04;1.90;99.90
10443;DHT22;5269;51.146;16.986;2023-01-26T04:48:31;1.80;99.90
10443;DHT22;5269;51.146;16.986;2023-01-26T04:51:01;1.80;99.90
10443;DHT22;5269;51.146;16.986;2023-01-26T04:53:30;1.90;99.90
10443;DHT22;5269;51.146;16.986;2023-01-26T04:55:58;1.80;99.90
10443;DHT22;5269;51.146;16.986;2023-01-26T04:58:25;1.80;99.90
10443;DHT22;5269;51.146;16.986;2023-01-26T05:00:53;1.80;99.90
10443;DHT22;5269;51.146;16.986;2023-01-26T05:03:21;1.70;99.90
10443;DHT22;5269;51.146;16.986;2023-01-26T05:05:48;1.70;99.90
10443;DHT22;5269;51.146;16.986;2023-01-26T05:08:18;1.70;99.90
10443;DHT22;5269;51.146;16.986;2023-01-26T05:10:45;1.80;99.90
10443;DHT22;5269;51.146;16.986;2023-01-26T05:13:13;1.80;99.90
10443;DHT22;5269;51.146;16.986;2023-01-26T05:15:40;1.80;99.90
10443;DHT22;5269;51.146;16.986;2023-01-26T05:18:08;1.80;99.90
10443;DHT22;5269;51.146;16.986;2023-01-26T05:20:37;1.80;99.90
10443;DHT22;5269;51.146;16.986;2023-01-26T05:23:04;1.70;99.90
10443;DHT22;5269;51.146;16.986;2023-01-26T05:25:34;1.70;99.90
10443;DHT22;5269;51.146;16.986;2023-01-26T05:28:01;1.70;99.90
10443;DHT22;5269;51.146;16.986;2023-01-26T05:30:29;1.80;99.90
10443;DHT22;5269;51.146;16.986;2023-01-26T05:33:00;1.70;99.90
10443;DHT22;5269;51.146;16.986;2023-01-26T05:35:27;1.70;99.90
10443;DHT22;5269;51.146;16.986;2023-01-26T05:37:54;1.70;99.90
10443;DHT22;5269;51.146;16.986;2023-01-26T05:40:22;1.60;99.90
10443;DHT22;5269;51.146;16.986;2023-01-26T05:42:51;1.60;99.90
10443;DHT22;5269;51.146;16.986;2023-01-26T05:45:20;1.60;99.90
10443;DHT22;5269;51.146;16.986;2023-01-26T05:47:47;1.60;99.90
10443;DHT22;5269;51.146;16.986;2023-01-26T05:50:14;1.60;99.90
10443;DHT22;5269;51.146;16.986;2023-01-26T05:52:42;1.60;99.90
10443;DHT22;5269;51.146;16.986;2023-01-26T05:55:14;1.70;99.90
10443;DHT22;5269;51.146;16.986;2023-01-26T05:57:44;1.60;99.90
10443;DHT22;5269;51.146;16.986;2023-01-26T06:00:13;1.60;99.90
10443;DHT22;5269;51.146;16.986;2023-01-26T06:02:40;1.60;99.90
10443;DHT22;5269;51.146;16.986;2023-01-26T06:05:08;1.60;99.90
10443;DHT22;5269;51.146;16.986;2023-01-26T06:07:35;1.60;99.90
10443;DHT22;5269;51.146;16.986;2023-01-26T06:10:02;1.70;99.90
10443;DHT22;5269;51.146;16.986;2023-01-26T06:12:29;1.70;99.90
10443;DHT22;5269;51.146;16.986;2023-01-26T06:15:00;1.70;99.90
10443;DHT22;5269;51.146;16.986;2023-01-26T06:17:28;1.70;99.90
10443;DHT22;5269;51.146;16.986;2023-01-26T06:19:55;1.70;99.90
10443;DHT22;5269;51.146;16.986;2023-01-26T06:22:23;1.70;99.90
10443;DHT22;5269;51.146;16.986;2023-01-26T06:24:50;1.60;99.90
10443;DHT22;5269;51.146;16.986;2023-01-26T06:27:17;1.50;99.90
10443;DHT22;5269;51.146;16.986;2023-01-26T06:29:44;1.50;99.90
10443;DHT22;5269;51.146;16.986;2023-01-26T06:32:12;1.70;99.90
10443;DHT22;5269;51.146;16.986;2023-01-26T06:34:40;1.70;99.90
10443;DHT22;5269;51.146;16.986;2023-01-26T06:37:07;1.70;99.90
10443;DHT22;5269;51.146;16.986;2023-01-26T06:39:34;1.60;99.90
10443;DHT22;5269;51.146;16.986;2023-01-26T06:42:02;1.70;99.90
10443;DHT22;5269;51.146;16.986;2023-01-26T06:44:29;1.70;99.90
10443;DHT22;5269;51.146;16.986;2023-01-26T06:46:56;1.80;99.90
10443;DHT22;5269;51.146;16.986;2023-01-26T06:49:23;1.80;99.90
10443;DHT22;5269;51.146;16.986;2023-01-26T06:51:56;1.80;99.90
10443;DHT22;5269;51.146;16.986;2023-01-26T06:54:24;1.70;99.90
10443;DHT22;5269;51.146;16.986;2023-01-26T06:56:53;1.70;99.90
10443;DHT22;5269;51.146;16.986;2023-01-26T06:59:20;1.60;99.90
10443;DHT22;5269;51.146;16.986;2023-01-26T07:01:47;1.60;99.90
10443;DHT22;5269;51.146;16.986;2023-01-26T07:04:16;1.60;99.90
10443;DHT22;5269;51.146;16.986;2023-01-26T07:06:46;1.70;99.90
10443;DHT22;5269;51.146;16.986;2023-01-26T07:09:14;1.60;99.90
10443;DHT22;5269;51.146;16.986;2023-01-26T07:11:41;1.60;99.90
10443;DHT22;5269;51.146;16.986;2023-01-26T07:14:08;1.60;99.90
10443;DHT22;5269;51.146;16.986;2023-01-26T07:16:35;1.60;99.90
10443;DHT22;5269;51.146;16.986;2023-01-26T07:19:04;1.70;99.90
10443;DHT22;5269;51.146;16.986;2023-01-26T07:21:32;1.70;99.90
10443;DHT22;5269;51.146;16.986;2023-01-26T07:24:00;1.70;99.90
10443;DHT22;5269;51.146;16.986;2023-01-26T07:26:28;1.70;99.90
10443;DHT22;5269;51.146;16.986;2023-01-26T07:46:20;1.80;99.90
10443;DHT22;5269;51.146;16.986;2023-01-26T07:49:09;1.70;99.90
10443;DHT22;5269;51.146;16.986;2023-01-26T07:51:46;1.70;99.90
10443;DHT22;5269;51.146;16.986;2023-01-26T07:54:18;1.70;99.90
10443;DHT22;5269;51.146;16.986;2023-01-26T07:56:58;1.80;99.90
10443;DHT22;5269;51.146;16.986;2023-01-26T07:59:31;1.70;99.90
10443;DHT22;5269;51.146;16.986;2023-01-26T08:01:59;1.90;99.90
10443;DHT22;5269;51.146;16.986;2023-01-26T08:04:26;1.90;99.90
10443;DHT22;5269;51.146;16.986;2023-01-26T08:06:53;1.90;99.90
10443;DHT22;5269;51.146;16.986;2023-01-26T08:09:20;1.90;99.90
10443;DHT22;5269;51.146;16.986;2023-01-26T08:11:55;1.90;99.90
10443;DHT22;5269;51.146;16.986;2023-01-26T08:14:23;1.80;99.90
10443;DHT22;5269;51.146;16.986;2023-01-26T08:16:52;1.90;99.90
10443;DHT22;5269;51.146;16.986;2023-01-26T08:19:22;1.80;99.90
10443;DHT22;5269;51.146;16.986;2023-01-26T08:21:49;1.90;99.90
10443;DHT22;5269;51.146;16.986;2023-01-26T08:24:17;1.80;99.90
10443;DHT22;5269;51.146;16.986;2023-01-26T08:26:44;1.80;99.90
10443;DHT22;5269;51.146;16.986;2023-01-26T08:29:11;1.80;99.90
10443;DHT22;5269;51.146;16.986;2023-01-26T08:31:38;1.80;99.90
10443;DHT22;5269;51.146;16.986;2023-01-26T08:34:05;1.90;99.90
10443;DHT22;5269;51.146;16.986;2023-01-26T08:36:33;1.90;99.90
10443;DHT22;5269;51.146;16.986;2023-01-26T08:39:00;1.90;99.90
10443;DHT22;5269;51.146;16.986;2023-01-26T08:41:28;2.00;99.90
10443;DHT22;5269;51.146;16.986;2023-01-26T08:43:55;2.00;99.90
10443;DHT22;5269;51.146;16.986;2023-01-26T08:46:23;2.10;99.90
10443;DHT22;5269;51.146;16.986;2023-01-26T08:48:50;2.20;99.90
10443;DHT22;5269;51.146;16.986;2023-01-26T08:51:17;2.20;99.90
10443;DHT22;5269;51.146;16.986;2023-01-26T08:53:46;2.10;99.90
10443;DHT22;5269;51.146;16.986;2023-01-26T08:56:13;2.10;99.90
10443;DHT22;5269;51.146;16.986;2023-01-26T08:58:40;2.20;99.90
10443;DHT22;5269;51.146;16.986;2023-01-26T09:01:09;2.20;99.90
10443;DHT22;5269;51.146;16.986;2023-01-26T09:03:36;2.10;99.90
10443;DHT22;5269;51.146;16.986;2023-01-26T09:06:05;2.10;99.90
10443;DHT22;5269;51.146;16.986;2023-01-26T09:08:32;2.10;99.90
10443;DHT22;5269;51.146;16.986;2023-01-26T09:11:04;2.10;99.90
10443;DHT22;5269;51.146;16.986;2023-01-26T09:13:31;2.00;99.90
10443;DHT22;5269;51.146;16.986;2023-01-26T09:15:58;2.10;99.90
10443;DHT22;5269;51.146;16.986;2023-01-26T09:18:28;2.40;99.90
10443;DHT22;5269;51.146;16.986;2023-01-26T09:21:01;2.50;99.90
10443;DHT22;5269;51.146;16.986;2023-01-26T09:23:28;2.40;99.90
10443;DHT22;5269;51.146;16.986;2023-01-26T09:25:55;2.20;99.90
10443;DHT22;5269;51.146;16.986;2023-01-26T09:28:23;2.00;99.90
10443;DHT22;5269;51.146;16.986;2023-01-26T09:30:50;2.00;99.90
10443;DHT22;5269;51.146;16.986;2023-01-26T09:33:17;2.20;99.90
10443;DHT22;5269;51.146;16.986;2023-01-26T09:35:46;2.30;99.90
10443;DHT22;5269;51.146;16.986;2023-01-26T09:38:13;2.50;99.90
10443;DHT22;5269;51.146;16.986;2023-01-26T09:40:46;2.40;99.90
10443;DHT22;5269;51.146;16.986;2023-01-26T09:43:27;2.30;99.90
10443;DHT22;5269;51.146;16.986;2023-01-26T09:46:20;2.00;99.90
10443;DHT22;5269;51.146;16.986;2023-01-26T09:48:54;2.00;99.90
10443;DHT22;5269;51.146;16.986;2023-01-26T09:51:28;2.10;99.90
10443;DHT22;5269;51.146;16.986;2023-01-26T09:53:59;2.00;99.90
10443;DHT22;5269;51.146;16.986;2023-01-26T09:56:29;1.90;99.90
10443;DHT22;5269;51.146;16.986;2023-01-26T09:59:04;1.90;99.90
10443;DHT22;5269;51.146;16.986;2023-01-26T10:01:44;1.90;99.90
10443;DHT22;5269;51.146;16.986;2023-01-26T10:04:23;2.10;99.90
10443;DHT22;5269;51.146;16.986;2023-01-26T10:06:56;2.10;99.90
10443;DHT22;5269;51.146;16.986;2023-01-26T10:09:56;2.00;99.90
10443;DHT22;5269;51.146;16.986;2023-01-26T10:12:27;2.00;99.90
10443;DHT22;5269;51.146;16.986;2023-01-26T10:15:00;2.10;99.90
10443;DHT22;5269;51.146;16.986;2023-01-26T10:17:32;2.00;99.90
10443;DHT22;5269;51.146;16.986;2023-01-26T10:20:04;2.00;99.90
10443;DHT22;5269;51.146;16.986;2023-01-26T10:22:39;2.00;99.90
10443;DHT22;5269;51.146;16.986;2023-01-26T10:25:13;2.20;99.90
10443;DHT22;5269;51.146;16.986;2023-01-26T10:27:41;2.10;99.90
10443;DHT22;5269;51.146;16.986;2023-01-26T10:30:13;2.00;99.90
10443;DHT22;5269;51.146;16.986;2023-01-26T10:32:42;2.10;99.90
10443;DHT22;5269;51.146;16.986;2023-01-26T10:35:14;2.10;99.90
10443;DHT22;5269;51.146;16.986;2023-01-26T10:37:45;2.10;99.90
10443;DHT22;5269;51.146;16.986;2023-01-26T10:40:12;2.20;99.90
10443;DHT22;5269;51.146;16.986;2023-01-26T10:42:39;2.20;99.90
10443;DHT22;5269;51.146;16.986;2023-01-26T10:45:25;2.00;99.90
10443;DHT22;5269;51.146;16.986;2023-01-26T10:48:15;2.10;99.90
10443;DHT22;5269;51.146;16.986;2023-01-26T10:50:43;2.00;99.90
10443;DHT22;5269;51.146;16.986;2023-01-26T10:53:15;1.90;99.90
10443;DHT22;5269;51.146;16.986;2023-01-26T10:55:44;1.90;99.90
10443;DHT22;5269;51.146;16.986;2023-01-26T10:58:47;1.80;99.90
10443;DHT22;5269;51.146;16.986;2023-01-26T11:01:17;1.80;99.90
10443;DHT22;5269;51.146;16.986;2023-01-26T11:04:03;1.70;99.90
10443;DHT22;5269;51.146;16.986;2023-01-26T11:06:31;1.70;99.90
10443;DHT22;5269;51.146;16.986;2023-01-26T11:09:16;1.80;99.90
10443;DHT22;5269;51.146;16.986;2023-01-26T11:11:55;1.80;99.90
10443;DHT22;5269;51.146;16.986;2023-01-26T11:14:23;1.80;99.90
10443;DHT22;5269;51.146;16.986;2023-01-26T11:16:56;1.80;99.90
10443;DHT22;5269;51.146;16.986;2023-01-26T11:19:40;1.90;99.90
10443;DHT22;5269;51.146;16.986;2023-01-26T11:22:12;1.80;99.90
10443;DHT22;5269;51.146;16.986;2023-01-26T11:24:47;1.80;99.90
10443;DHT22;5269;51.146;16.986;2023-01-26T11:27:24;1.80;99.90
10443;DHT22;5269;51.146;16.986;2023-01-26T11:30:09;1.80;99.90
10443;DHT22;5269;51.146;16.986;2023-01-26T11:32:49;1.90;99.90
10443;DHT22;5269;51.146;16.986;2023-01-26T11:35:27;1.90;99.90
10443;DHT22;5269;51.146;16.986;2023-01-26T11:37:59;2.00;99.90
10443;DHT22;5269;51.146;16.986;2023-01-26T11:40:40;2.00;99.90
10443;DHT22;5269;51.146;16.986;2023-01-26T11:43:40;1.90;99.90
10443;DHT22;5269;51.146;16.986;2023-01-26T11:46:27;1.90;99.90
10443;DHT22;5269;51.146;16.986;2023-01-26T11:49:10;1.80;99.90
10443;DHT22;5269;51.146;16.986;2023-01-26T11:52:06;1.80;99.90
10443;DHT22;5269;51.146;16.986;2023-01-26T11:54:51;1.80;99.90
10443;DHT22;5269;51.146;16.986;2023-01-26T11:57:25;1.90;99.90
10443;DHT22;5269;51.146;16.986;2023-01-26T12:00:01;1.90;99.90
10443;DHT22;5269;51.146;16.986;2023-01-26T12:02:35;2.00;99.90
10443;DHT22;5269;51.146;16.986;2023-01-26T12:05:12;1.80;99.90
10443;DHT22;5269;51.146;16.986;2023-01-26T12:07:46;1.90;99.90
10443;DHT22;5269;51.146;16.986;2023-01-26T12:10:23;1.80;99.90
10443;DHT22;5269;51.146;16.986;2023-01-26T12:12:57;1.70;99.90
10443;DHT22;5269;51.146;16.986;2023-01-26T12:15:32;1.80;99.90
10443;DHT22;5269;51.146;16.986;2023-01-26T12:18:04;1.70;99.90
10443;DHT22;5269;51.146;16.986;2023-01-26T12:20:38;1.70;99.90
10443;DHT22;5269;51.146;16.986;2023-01-26T12:23:11;1.60;99.90
10443;DHT22;5269;51.146;16.986;2023-01-26T12:25:43;1.60;99.90
10443;DHT22;5269;51.146;16.986;2023-01-26T12:28:18;1.60;99.90
10443;DHT22;5269;51.146;16.986;2023-01-26T12:30:51;1.70;99.90
10443;DHT22;5269;51.146;16.986;2023-01-26T12:33:21;1.70;99.90
10443;DHT22;5269;51.146;16.986;2023-01-26T12:36:08;1.70;99.90
10443;DHT22;5269;51.146;16.986;2023-01-26T12:38:54;1.70;99.90
10443;DHT22;5269;51.146;16.986;2023-01-26T12:41:33;1.70;99.90
10443;DHT22;5269;51.146;16.986;2023-01-26T12:44:14;1.50;99.90
10443;DHT22;5269;51.146;16.986;2023-01-26T12:46:46;1.70;99.90
10443;DHT22;5269;51.146;16.986;2023-01-26T12:49:19;1.80;99.90
10443;DHT22;5269;51.146;16.986;2023-01-26T12:51:54;1.70;99.90
10443;DHT22;5269;51.146;16.986;2023-01-26T12:54:29;1.70;99.90
10443;DHT22;5269;51.146;16.986;2023-01-26T12:56:59;1.70;99.90
10443;DHT22;5269;51.146;16.986;2023-01-26T12:59:31;1.60;99.90
10443;DHT22;5269;51.146;16.986;2023-01-26T13:01:59;1.70;99.90
10443;DHT22;5269;51.146;16.986;2023-01-26T13:04:27;1.70;99.90
10443;DHT22;5269;51.146;16.986;2023-01-26T13:07:02;1.80;99.90
10443;DHT22;5269;51.146;16.986;2023-01-26T13:09:30;1.80;99.90
10443;DHT22;5269;51.146;16.986;2023-01-26T13:11:59;1.80;99.90
10443;DHT22;5269;51.146;16.986;2023-01-26T13:14:32;1.80;99.90
10443;DHT22;5269;51.146;16.986;2023-01-26T13:20:28;1.80;99.90
10443;DHT22;5269;51.146;16.986;2023-01-26T13:26:18;1.80;99.90
10443;DHT22;5269;51.146;16.986;2023-01-26T13:28:47;1.80;99.90
10443;DHT22;5269;51.146;16.986;2023-01-26T13:31:29;1.80;99.90
10443;DHT22;5269;51.146;16.986;2023-01-26T13:33:59;1.90;99.90
10443;DHT22;5269;51.146;16.986;2023-01-26T13:36:33;2.00;99.90
10443;DHT22;5269;51.146;16.986;2023-01-26T13:39:10;2.10;99.90
10443;DHT22;5269;51.146;16.986;2023-01-26T13:41:44;2.20;99.90
10443;DHT22;5269;51.146;16.986;2023-01-26T13:44:16;2.30;99.90
10443;DHT22;5269;51.146;16.986;2023-01-26T13:46:47;2.30;99.90
10443;DHT22;5269;51.146;16.986;2023-01-26T13:49:24;2.20;99.90
10443;DHT22;5269;51.146;16.986;2023-01-26T13:51:53;2.10;99.90
10443;DHT22;5269;51.146;16.986;2023-01-26T13:54:41;2.10;99.90
10443;DHT22;5269;51.146;16.986;2023-01-26T13:57:24;2.10;99.90
10443;DHT22;5269;51.146;16.986;2023-01-26T14:00:25;2.20;99.90
10443;DHT22;5269;51.146;16.986;2023-01-26T14:03:28;2.20;99.90
10443;DHT22;5269;51.146;16.986;2023-01-26T14:05:59;2.20;99.90
10443;DHT22;5269;51.146;16.986;2023-01-26T14:08:27;2.30;99.90
10443;DHT22;5269;51.146;16.986;2023-01-26T14:10:57;2.30;99.90
10443;DHT22;5269;51.146;16.986;2023-01-26T14:13:30;2.40;99.90
10443;DHT22;5269;51.146;16.986;2023-01-26T14:16:04;2.30;99.90
10443;DHT22;5269;51.146;16.986;2023-01-26T14:18:31;2.30;99.90
10443;DHT22;5269;51.146;16.986;2023-01-26T14:21:02;2.20;99.90
10443;DHT22;5269;51.146;16.986;2023-01-26T14:23:33;2.20;99.90
10443;DHT22;5269;51.146;16.986;2023-01-26T14:26:04;2.10;99.90
10443;DHT22;5269;51.146;16.986;2023-01-26T14:28:40;2.20;99.90
10443;DHT22;5269;51.146;16.986;2023-01-26T14:31:11;2.10;99.90
10443;DHT22;5269;51.146;16.986;2023-01-26T14:33:44;2.30;99.90
10443;DHT22;5269;51.146;16.986;2023-01-26T14:36:20;2.30;99.90
10443;DHT22;5269;51.146;16.986;2023-01-26T14:38:52;2.30;99.90
10443;DHT22;5269;51.146;16.986;2023-01-26T14:41:31;2.30;99.90
10443;DHT22;5269;51.146;16.986;2023-01-26T14:43:58;2.30;99.90
10443;DHT22;5269;51.146;16.986;2023-01-26T14:46:29;2.30;99.90
10443;DHT22;5269;51.146;16.986;2023-01-26T14:49:01;2.40;99.90
10443;DHT22;5269;51.146;16.986;2023-01-26T14:51:30;2.50;99.90
10443;DHT22;5269;51.146;16.986;2023-01-26T14:54:00;2.40;99.90
10443;DHT22;5269;51.146;16.986;2023-01-26T14:56:37;2.30;99.90
10443;DHT22;5269;51.146;16.986;2023-01-26T14:59:05;2.30;99.90
10443;DHT22;5269;51.146;16.986;2023-01-26T15:01:33;2.30;99.90
10443;DHT22;5269;51.146;16.986;2023-01-26T15:04:02;2.20;99.90
10443;DHT22;5269;51.146;16.986;2023-01-26T15:06:30;2.20;99.90
10443;DHT22;5269;51.146;16.986;2023-01-26T15:09:00;2.20;99.90
10443;DHT22;5269;51.146;16.986;2023-01-26T15:11:36;2.20;99.90
10443;DHT22;5269;51.146;16.986;2023-01-26T15:14:34;2.20;99.90
10443;DHT22;5269;51.146;16.986;2023-01-26T15:17:02;2.20;99.90
10443;DHT22;5269;51.146;16.986;2023-01-26T15:19:39;2.30;99.90
10443;DHT22;5269;51.146;16.986;2023-01-26T15:22:18;2.20;99.90
10443;DHT22;5269;51.146;16.986;2023-01-26T15:24:46;2.20;99.90
10443;DHT22;5269;51.146;16.986;2023-01-26T15:27:29;2.30;99.90
10443;DHT22;5269;51.146;16.986;2023-01-26T15:29:57;2.20;99.90
10443;DHT22;5269;51.146;16.986;2023-01-26T15:32:28;2.20;99.90
10443;DHT22;5269;51.146;16.986;2023-01-26T15:35:05;2.10;99.90
10443;DHT22;5269;51.146;16.986;2023-01-26T15:37:35;2.10;99.90
10443;DHT22;5269;51.146;16.986;2023-01-26T15:40:02;2.10;99.90
10443;DHT22;5269;51.146;16.986;2023-01-26T15:42:30;2.00;99.90
10443;DHT22;5269;51.146;16.986;2023-01-26T15:44:58;2.00;99.90
10443;DHT22;5269;51.146;16.986;2023-01-26T15:47:24;2.00;99.90
10443;DHT22;5269;51.146;16.986;2023-01-26T15:49:51;2.10;99.90
10443;DHT22;5269;51.146;16.986;2023-01-26T15:52:20;1.90;99.90
10443;DHT22;5269;51.146;16.986;2023-01-26T15:54:50;1.90;99.90
10443;DHT22;5269;51.146;16.986;2023-01-26T15:57:18;1.90;99.90
10443;DHT22;5269;51.146;16.986;2023-01-26T15:59:46;1.90;99.90
10443;DHT22;5269;51.146;16.986;2023-01-26T16:02:15;1.90;99.90
10443;DHT22;5269;51.146;16.986;2023-01-26T16:04:43;2.00;99.90
10443;DHT22;5269;51.146;16.986;2023-01-26T16:07:11;2.00;99.90
10443;DHT22;5269;51.146;16.986;2023-01-26T16:09:39;2.00;99.90
10443;DHT22;5269;51.146;16.986;2023-01-26T16:12:14;2.00;99.90
10443;DHT22;5269;51.146;16.986;2023-01-26T16:14:41;2.00;99.90
10443;DHT22;5269;51.146;16.986;2023-01-26T16:17:15;2.00;99.90
10443;DHT22;5269;51.146;16.986;2023-01-26T16:19:42;2.10;99.90
10443;DHT22;5269;51.146;16.986;2023-01-26T16:22:11;2.00;99.90
10443;DHT22;5269;51.146;16.986;2023-01-26T16:24:38;2.10;99.90
10443;DHT22;5269;51.146;16.986;2023-01-26T16:27:05;2.00;99.90
10443;DHT22;5269;51.146;16.986;2023-01-26T16:29:33;2.00;99.90
10443;DHT22;5269;51.146;16.986;2023-01-26T16:32:00;2.00;99.90
10443;DHT22;5269;51.146;16.986;2023-01-26T16:34:29;2.00;99.90
10443;DHT22;5269;51.146;16.986;2023-01-26T16:36:55;1.90;99.90
10443;DHT22;5269;51.146;16.986;2023-01-26T16:39:22;1.70;99.90